Time;durP1;ratioP1;P1;durP2;ratioP2;P2;SDS_P1;SDS_P2;PMS_P1;PMS_P2;Temp;Humidity;BMP_temperature;BMP_pressure;BME280_temperature;BME280_humidity;BME280_pressure;Samples;Min_cycle;Max_cycle;Signal;HPM_P1;HPM_P2
2023/08/20 00:00:27;;;;;;;4.70;1.50;;;;;;;;;;5009463;28;21030;-68
2023/08/20 00:03:04;;;;;;;5.57;1.55;;;;;;;;;;5009902;28;20110;-68
2023/08/20 00:05:31;;;;;;;3.70;1.35;;;;;;;;;;5008072;28;20037;-68
2023/08/20 00:07:57;;;;;;;8.05;1.70;;;;;;;;;;5010295;28;20950;-68
2023/08/20 00:10:23;;;;;;;9.35;2.38;;;;;;;;;;5010099;28;20044;-68
2023/08/20 00:12:49;;;;;;;5.57;2.35;;;;;;;;;;5010819;28;20515;-68
2023/08/20 00:15:15;;;;;;;4.70;1.92;;;;;;;;;;5009502;28;20052;-68
2023/08/20 00:17:42;;;;;;;8.15;2.33;;;;;;;;;;5010774;28;20044;-68
2023/08/20 00:20:18;;;;;;;5.15;2.17;;;;;;;;;;5008023;28;20116;-68
2023/08/20 00:22:47;;;;;;;7.22;2.17;;;;;;;;;;5009216;28;20025;-68
2023/08/20 00:25:14;;;;;;;6.03;2.00;;;;;;;;;;5010342;28;20065;-68
2023/08/20 00:27:41;;;;;;;5.90;2.58;;;;;;;;;;5010621;28;20037;-68
2023/08/20 00:30:08;;;;;;;9.05;2.83;;;;;;;;;;5009394;28;20692;-68
2023/08/20 00:32:34;;;;;;;6.32;2.35;;;;;;;;;;5009947;28;20035;-68
2023/08/20 00:35:00;;;;;;;11.13;2.40;;;;;;;;;;5010239;28;20037;-68
2023/08/20 00:37:30;;;;;;;7.72;2.60;;;;;;;;;;5010353;28;20066;-68
2023/08/20 00:39:57;;;;;;;7.55;2.45;;;;;;;;;;5010894;28;20032;-68
2023/08/20 00:42:25;;;;;;;9.43;2.50;;;;;;;;;;5009872;28;20021;-68
2023/08/20 00:44:51;;;;;;;14.05;2.88;;;;;;;;;;5009924;28;20780;-68
2023/08/20 00:47:18;;;;;;;7.13;2.50;;;;;;;;;;5009952;28;20037;-68
2023/08/20 00:49:45;;;;;;;6.47;1.85;;;;;;;;;;5010604;28;20427;-68
2023/08/20 00:52:12;;;;;;;7.47;1.48;;;;;;;;;;5010331;28;20037;-68
2023/08/20 00:54:39;;;;;;;7.07;1.98;;;;;;;;;;5009461;28;20140;-68
2023/08/20 00:57:07;;;;;;;4.57;1.48;;;;;;;;;;5010144;28;20033;-68
2023/08/20 00:59:33;;;;;;;3.95;1.50;;;;;;;;;;5010036;28;20272;-68
2023/08/20 01:01:59;;;;;;;4.20;1.38;;;;;;;;;;5010971;28;20025;-68
2023/08/20 01:04:25;;;;;;;3.15;1.35;;;;;;;;;;5010386;28;20029;-68
2023/08/20 01:06:56;;;;;;;2.58;1.17;;;;;;;;;;4989133;28;20124;-68
2023/08/20 01:09:22;;;;;;;4.30;1.38;;;;;;;;;;5009818;28;20033;-68
2023/08/20 01:11:52;;;;;;;3.72;1.33;;;;;;;;;;5009160;28;20469;-68
2023/08/20 01:14:18;;;;;;;5.60;1.58;;;;;;;;;;5013666;28;20029;-68
2023/08/20 01:16:45;;;;;;;10.38;1.95;;;;;;;;;;4996606;28;20038;-68
2023/08/20 01:19:16;;;;;;;9.02;2.13;;;;;;;;;;5013214;28;20392;-68
2023/08/20 01:21:48;;;;;;;6.78;2.60;;;;;;;;;;5013779;28;20033;-68
2023/08/20 01:24:33;;;;;;;5.70;2.20;;;;;;;;;;5014060;28;20056;-68
2023/08/20 01:27:11;;;;;;;5.30;2.40;;;;;;;;;;5013516;28;20045;-68
2023/08/20 01:29:38;;;;;;;7.32;2.35;;;;;;;;;;5014098;28;20662;-68
2023/08/20 01:32:04;;;;;;;6.07;2.72;;;;;;;;;;5012995;28;20029;-68
2023/08/20 01:34:30;;;;;;;6.28;2.20;;;;;;;;;;5012710;28;20087;-68
2023/08/20 01:36:57;;;;;;;7.93;2.50;;;;;;;;;;5013109;28;20044;-68
2023/08/20 01:39:23;;;;;;;8.60;2.75;;;;;;;;;;5013499;28;20042;-68
2023/08/20 01:41:49;;;;;;;7.22;2.70;;;;;;;;;;5012806;28;20033;-68
2023/08/20 01:44:15;;;;;;;6.47;2.60;;;;;;;;;;5013398;28;20036;-68
2023/08/20 01:46:41;;;;;;;8.60;2.60;;;;;;;;;;5012716;28;20037;-68
2023/08/20 01:49:07;;;;;;;7.88;2.92;;;;;;;;;;5009963;28;20036;-68
2023/08/20 01:51:33;;;;;;;9.68;2.83;;;;;;;;;;5010120;28;20118;-68
2023/08/20 01:53:59;;;;;;;5.40;2.63;;;;;;;;;;5012692;28;20037;-68
2023/08/20 01:56:26;;;;;;;5.97;2.28;;;;;;;;;;5012566;28;20029;-68
2023/08/20 01:58:52;;;;;;;6.90;2.05;;;;;;;;;;5012012;28;20406;-68
2023/08/20 02:01:18;;;;;;;7.65;2.97;;;;;;;;;;5026142;28;20037;-68
2023/08/20 02:03:44;;;;;;;9.63;2.92;;;;;;;;;;5010959;28;20796;-68
2023/08/20 02:06:10;;;;;;;8.05;2.72;;;;;;;;;;5009983;28;20110;-68
2023/08/20 02:08:36;;;;;;;11.50;2.70;;;;;;;;;;5011314;28;20033;-68
2023/08/20 02:11:03;;;;;;;9.18;2.63;;;;;;;;;;5011273;28;20044;-68
2023/08/20 02:13:29;;;;;;;10.15;2.90;;;;;;;;;;5011140;28;20031;-68
2023/08/20 02:16:01;;;;;;;6.95;3.10;;;;;;;;;;5012907;28;20620;-68
2023/08/20 02:18:28;;;;;;;14.15;3.40;;;;;;;;;;5011319;28;20148;-68
2023/08/20 02:20:54;;;;;;;9.45;3.03;;;;;;;;;;5012585;28;20029;-68
2023/08/20 02:23:20;;;;;;;9.20;3.05;;;;;;;;;;5010447;28;20064;-68
2023/08/20 02:25:47;;;;;;;11.93;3.17;;;;;;;;;;5011504;28;20916;-68
2023/08/20 02:28:13;;;;;;;8.73;3.58;;;;;;;;;;5011313;28;20432;-68
2023/08/20 02:30:42;;;;;;;9.95;3.55;;;;;;;;;;5012127;28;20112;-68
2023/08/20 02:33:09;;;;;;;8.18;3.38;;;;;;;;;;5012102;28;20559;-68
2023/08/20 02:35:35;;;;;;;10.70;3.85;;;;;;;;;;5012380;28;20049;-68
2023/08/20 02:38:01;;;;;;;10.55;3.97;;;;;;;;;;5011754;28;20714;-68
2023/08/20 02:40:27;;;;;;;12.82;4.25;;;;;;;;;;5011898;28;20040;-68
2023/08/20 02:42:53;;;;;;;13.48;3.85;;;;;;;;;;5012479;28;20033;-68
2023/08/20 02:45:20;;;;;;;7.90;3.55;;;;;;;;;;5013370;28;20041;-68
2023/08/20 02:47:46;;;;;;;8.85;3.42;;;;;;;;;;5011666;28;20045;-68
2023/08/20 02:50:12;;;;;;;7.32;3.40;;;;;;;;;;5012653;28;20040;-68
2023/08/20 02:52:38;;;;;;;7.85;2.67;;;;;;;;;;5011696;28;20059;-67
2023/08/20 02:55:07;;;;;;;7.75;3.10;;;;;;;;;;5012050;28;21451;-68
2023/08/20 02:57:33;;;;;;;7.50;2.80;;;;;;;;;;5011038;28;20034;-68
2023/08/20 02:59:59;;;;;;;7.28;2.72;;;;;;;;;;5012476;28;20730;-68
2023/08/20 03:02:25;;;;;;;7.60;3.28;;;;;;;;;;5011502;28;20045;-68
2023/08/20 03:04:52;;;;;;;8.95;3.42;;;;;;;;;;5011930;28;20037;-68
2023/08/20 03:07:19;;;;;;;8.00;3.40;;;;;;;;;;5012144;28;20037;-68
2023/08/20 03:09:45;;;;;;;7.85;3.60;;;;;;;;;;5011657;28;20050;-68
2023/08/20 03:12:11;;;;;;;9.32;4.25;;;;;;;;;;5010759;28;20044;-68
2023/08/20 03:14:37;;;;;;;14.18;4.30;;;;;;;;;;5011078;28;20043;-68
2023/08/20 03:17:03;;;;;;;13.82;4.70;;;;;;;;;;5011356;28;20475;-68
2023/08/20 03:19:33;;;;;;;9.48;3.75;;;;;;;;;;5011306;28;20116;-68
2023/08/20 03:21:59;;;;;;;10.80;4.78;;;;;;;;;;5011535;28;20071;-68
2023/08/20 03:24:25;;;;;;;10.90;4.72;;;;;;;;;;4998873;28;20061;-68
2023/08/20 03:26:51;;;;;;;10.63;4.30;;;;;;;;;;5010597;28;20148;-68
2023/08/20 03:29:18;;;;;;;9.95;5.22;;;;;;;;;;5011462;28;20033;-67
2023/08/20 03:31:44;;;;;;;10.68;4.80;;;;;;;;;;5008845;28;20048;-68
2023/08/20 03:34:10;;;;;;;9.50;4.90;;;;;;;;;;5010407;28;20041;-68
2023/08/20 03:36:36;;;;;;;11.30;4.70;;;;;;;;;;5011863;28;20591;-68
2023/08/20 03:39:04;;;;;;;9.25;4.18;;;;;;;;;;5011327;28;20036;-68
2023/08/20 03:41:30;;;;;;;14.25;4.80;;;;;;;;;;5026832;28;20075;-68
2023/08/20 03:43:56;;;;;;;8.93;4.15;;;;;;;;;;5011757;28;20085;-68
2023/08/20 03:46:22;;;;;;;12.77;4.78;;;;;;;;;;5010902;28;20040;-68
2023/08/20 03:48:48;;;;;;;10.43;4.18;;;;;;;;;;5025658;28;20119;-68
2023/08/20 03:51:14;;;;;;;8.70;4.28;;;;;;;;;;5011117;28;20111;-68
2023/08/20 03:53:43;;;;;;;9.90;4.47;;;;;;;;;;5011579;28;20045;-68
2023/08/20 03:56:09;;;;;;;9.70;4.20;;;;;;;;;;5011203;28;20120;-68
2023/08/20 03:58:35;;;;;;;9.77;4.20;;;;;;;;;;5007720;28;20108;-68
2023/08/20 04:01:01;;;;;;;8.88;3.92;;;;;;;;;;5010782;28;20136;-68
2023/08/20 04:03:27;;;;;;;9.13;3.97;;;;;;;;;;5011109;28;20107;-68
2023/08/20 04:05:53;;;;;;;10.18;4.53;;;;;;;;;;5010480;28;20037;-68
2023/08/20 04:08:19;;;;;;;11.75;4.32;;;;;;;;;;5011449;28;20056;-68
2023/08/20 04:10:45;;;;;;;13.50;4.72;;;;;;;;;;5010411;28;20075;-68
2023/08/20 04:13:13;;;;;;;10.88;4.65;;;;;;;;;;5009468;28;20118;-68
2023/08/20 04:15:40;;;;;;;9.52;3.67;;;;;;;;;;5009467;28;20037;-68
2023/08/20 04:18:06;;;;;;;12.25;4.63;;;;;;;;;;5008812;28;20063;-68
2023/08/20 04:20:32;;;;;;;10.73;4.03;;;;;;;;;;5010577;28;20047;-68
2023/08/20 04:22:58;;;;;;;8.82;4.25;;;;;;;;;;5011338;28;20021;-68
2023/08/20 04:25:24;;;;;;;10.68;4.28;;;;;;;;;;5010250;28;20037;-68
2023/08/20 04:27:50;;;;;;;10.77;5.05;;;;;;;;;;5009353;28;20056;-68
2023/08/20 04:30:17;;;;;;;8.77;4.28;;;;;;;;;;5025628;28;20749;-68
2023/08/20 04:32:43;;;;;;;9.05;4.00;;;;;;;;;;5010548;28;20077;-68
2023/08/20 04:35:09;;;;;;;10.45;4.75;;;;;;;;;;5010324;28;20037;-68
2023/08/20 04:37:36;;;;;;;9.30;4.68;;;;;;;;;;5010607;28;20029;-68
2023/08/20 04:40:04;;;;;;;9.57;3.70;;;;;;;;;;5010724;28;20983;-68
2023/08/20 04:42:30;;;;;;;9.27;4.55;;;;;;;;;;5010213;28;20044;-68
2023/08/20 04:44:56;;;;;;;13.30;4.75;;;;;;;;;;5010430;28;20037;-68
2023/08/20 04:47:22;;;;;;;11.30;5.05;;;;;;;;;;5012367;28;20025;-68
2023/08/20 04:49:48;;;;;;;10.05;4.30;;;;;;;;;;5013572;28;20080;-68
2023/08/20 04:52:14;;;;;;;10.00;4.65;;;;;;;;;;5014249;28;20037;-68
2023/08/20 04:54:40;;;;;;;10.27;4.45;;;;;;;;;;5014258;28;20449;-68
2023/08/20 04:57:07;;;;;;;12.85;4.57;;;;;;;;;;5013924;28;20034;-68
2023/08/20 04:59:33;;;;;;;8.95;4.80;;;;;;;;;;5014483;28;20043;-68
2023/08/20 05:01:59;;;;;;;15.23;6.03;;;;;;;;;;5012786;28;20114;-68
2023/08/20 05:04:25;;;;;;;13.38;5.18;;;;;;;;;;5014553;28;20033;-68
2023/08/20 05:06:51;;;;;;;15.10;5.22;;;;;;;;;;5026791;28;20045;-68
2023/08/20 05:09:17;;;;;;;9.38;4.18;;;;;;;;;;5013883;28;20048;-68
2023/08/20 05:11:43;;;;;;;12.68;5.15;;;;;;;;;;5013631;28;20063;-68
2023/08/20 05:14:09;;;;;;;10.52;4.95;;;;;;;;;;5013939;28;20033;-68
2023/08/20 05:16:35;;;;;;;11.07;4.78;;;;;;;;;;5013762;28;20040;-67
2023/08/20 05:19:01;;;;;;;9.95;4.28;;;;;;;;;;5014297;28;20029;-68
2023/08/20 05:21:27;;;;;;;11.52;5.05;;;;;;;;;;5027475;28;20061;-68
2023/08/20 05:23:53;;;;;;;10.52;4.60;;;;;;;;;;5014055;28;20839;-68
2023/08/20 05:26:19;;;;;;;8.30;4.75;;;;;;;;;;5013801;28;20484;-68
2023/08/20 05:28:45;;;;;;;9.02;4.55;;;;;;;;;;5012076;28;20048;-68
2023/08/20 05:31:11;;;;;;;9.30;5.10;;;;;;;;;;5011831;28;20037;-68
2023/08/20 05:33:38;;;;;;;12.07;5.05;;;;;;;;;;5014546;28;20041;-67
2023/08/20 05:36:04;;;;;;;9.50;5.25;;;;;;;;;;5013032;28;20570;-68
2023/08/20 05:38:30;;;;;;;11.02;4.78;;;;;;;;;;5014484;28;20052;-68
2023/08/20 05:40:56;;;;;;;10.68;4.53;;;;;;;;;;5013455;28;20130;-68
2023/08/20 05:43:22;;;;;;;11.63;4.68;;;;;;;;;;5013045;28;20052;-68
2023/08/20 05:45:48;;;;;;;11.60;4.63;;;;;;;;;;5011542;28;20040;-68
2023/08/20 05:48:14;;;;;;;10.55;4.32;;;;;;;;;;5012691;28;20041;-68
2023/08/20 05:50:40;;;;;;;9.57;4.10;;;;;;;;;;5012981;28;20114;-68
2023/08/20 05:53:06;;;;;;;10.77;4.80;;;;;;;;;;5013747;28;20056;-68
2023/08/20 05:55:32;;;;;;;12.15;5.38;;;;;;;;;;5013742;28;20044;-68
2023/08/20 05:57:58;;;;;;;7.45;3.95;;;;;;;;;;5013231;28;20613;-68
2023/08/20 06:00:24;;;;;;;12.00;4.22;;;;;;;;;;5012592;28;20988;-68
2023/08/20 06:02:50;;;;;;;12.32;4.38;;;;;;;;;;5013369;28;20131;-68
2023/08/20 06:05:16;;;;;;;9.15;4.22;;;;;;;;;;5013251;28;20201;-68
2023/08/20 06:07:42;;;;;;;10.93;4.72;;;;;;;;;;5013149;28;20048;-68
2023/08/20 06:10:08;;;;;;;9.85;4.63;;;;;;;;;;5013100;28;20033;-68
2023/08/20 06:12:35;;;;;;;11.27;5.15;;;;;;;;;;5013017;28;20052;-68
2023/08/20 06:15:01;;;;;;;11.73;4.50;;;;;;;;;;5025910;28;20044;-68
2023/08/20 06:17:27;;;;;;;13.90;4.78;;;;;;;;;;5010712;28;20147;-68
2023/08/20 06:19:53;;;;;;;10.98;4.25;;;;;;;;;;5012261;28;20055;-68
2023/08/20 06:22:19;;;;;;;14.75;4.68;;;;;;;;;;5011789;28;20144;-67
2023/08/20 06:24:45;;;;;;;8.52;4.53;;;;;;;;;;5011071;28;21252;-67
2023/08/20 06:27:11;;;;;;;9.60;3.90;;;;;;;;;;5012677;28;20206;-67
2023/08/20 06:29:38;;;;;;;13.30;4.50;;;;;;;;;;5013746;28;20087;-67
2023/08/20 06:32:04;;;;;;;10.07;4.15;;;;;;;;;;5011837;28;20048;-67
2023/08/20 06:34:31;;;;;;;11.18;4.25;;;;;;;;;;5020214;28;20044;-67
2023/08/20 06:36:57;;;;;;;10.52;4.65;;;;;;;;;;5013192;28;20037;-68
2023/08/20 06:39:23;;;;;;;10.73;4.18;;;;;;;;;;5011302;28;20387;-68
2023/08/20 06:41:52;;;;;;;13.20;4.32;;;;;;;;;;5026559;28;20939;-68
2023/08/20 06:44:18;;;;;;;9.80;4.15;;;;;;;;;;5010445;28;20041;-68
2023/08/20 06:46:44;;;;;;;13.70;4.53;;;;;;;;;;5012498;28;20045;-68
2023/08/20 06:49:10;;;;;;;12.05;4.68;;;;;;;;;;5010484;28;20044;-68
2023/08/20 06:51:36;;;;;;;10.95;4.60;;;;;;;;;;5010183;28;20061;-68
2023/08/20 06:54:02;;;;;;;9.32;4.18;;;;;;;;;;5012150;28;20128;-68
2023/08/20 06:56:28;;;;;;;13.43;4.68;;;;;;;;;;5012405;28;20037;-68
2023/08/20 06:58:54;;;;;;;11.95;4.47;;;;;;;;;;5011882;28;20116;-68
2023/08/20 07:01:20;;;;;;;11.75;4.20;;;;;;;;;;5011758;28;20034;-68
2023/08/20 07:03:48;;;;;;;11.23;4.20;;;;;;;;;;5011823;28;20033;-68
2023/08/20 07:06:16;;;;;;;11.18;4.20;;;;;;;;;;5009266;28;20151;-67
2023/08/20 07:08:42;;;;;;;13.20;4.90;;;;;;;;;;5012097;28;20021;-68
2023/08/20 07:11:08;;;;;;;12.15;3.85;;;;;;;;;;5009854;28;20692;-68
2023/08/20 07:13:34;;;;;;;10.20;4.15;;;;;;;;;;5011585;28;20388;-68
2023/08/20 07:16:00;;;;;;;13.25;4.63;;;;;;;;;;5011540;28;20116;-68
2023/08/20 07:18:26;;;;;;;12.02;4.07;;;;;;;;;;5012146;28;20068;-68
2023/08/20 07:20:52;;;;;;;13.60;4.70;;;;;;;;;;5010545;28;20293;-68
2023/08/20 07:23:19;;;;;;;12.60;4.10;;;;;;;;;;5012161;28;20033;-68
2023/08/20 07:25:45;;;;;;;11.98;3.58;;;;;;;;;;5010702;28;20042;-68
2023/08/20 07:28:11;;;;;;;14.98;4.28;;;;;;;;;;5021624;28;20052;-68
2023/08/20 07:30:37;;;;;;;12.93;4.00;;;;;;;;;;5030186;28;20610;-68
2023/08/20 07:33:04;;;;;;;10.75;4.18;;;;;;;;;;5029899;28;20020;-68
2023/08/20 07:35:30;;;;;;;13.90;3.67;;;;;;;;;;5031579;28;20144;-68
2023/08/20 07:37:56;;;;;;;12.13;3.78;;;;;;;;;;5030763;28;20074;-68
2023/08/20 07:40:22;;;;;;;13.13;3.92;;;;;;;;;;5027961;28;20106;-68
2023/08/20 07:42:48;;;;;;;10.43;3.25;;;;;;;;;;5027772;28;21821;-68
2023/08/20 07:45:14;;;;;;;12.98;3.13;;;;;;;;;;5030901;28;20032;-68
2023/08/20 07:47:40;;;;;;;11.63;3.90;;;;;;;;;;5029701;28;20032;-68
2023/08/20 07:50:06;;;;;;;14.20;3.80;;;;;;;;;;5029746;28;20033;-68
2023/08/20 07:52:33;;;;;;;11.13;3.72;;;;;;;;;;5029575;28;20028;-68
2023/08/20 07:54:59;;;;;;;10.60;3.03;;;;;;;;;;5030534;28;20037;-68
2023/08/20 07:57:25;;;;;;;15.50;4.32;;;;;;;;;;5029415;28;20040;-68
2023/08/20 07:59:51;;;;;;;15.60;3.80;;;;;;;;;;5030831;28;20027;-68
2023/08/20 08:02:17;;;;;;;12.63;2.80;;;;;;;;;;5028558;28;20878;-68
2023/08/20 08:04:43;;;;;;;10.70;3.33;;;;;;;;;;5027624;28;21752;-68
2023/08/20 08:07:11;;;;;;;10.90;2.72;;;;;;;;;;5029700;28;20036;-68
2023/08/20 08:09:37;;;;;;;10.48;2.83;;;;;;;;;;5030962;28;20081;-68
2023/08/20 08:12:03;;;;;;;13.20;3.05;;;;;;;;;;5028329;28;20044;-68
2023/08/20 08:14:29;;;;;;;11.32;3.08;;;;;;;;;;5029740;28;20044;-68
2023/08/20 08:16:56;;;;;;;16.70;3.05;;;;;;;;;;5030419;28;20098;-68
2023/08/20 08:19:22;;;;;;;11.60;3.20;;;;;;;;;;5027962;28;20033;-68
2023/08/20 08:21:48;;;;;;;11.02;2.20;;;;;;;;;;5028762;28;20172;-68
2023/08/20 08:24:14;;;;;;;9.77;2.03;;;;;;;;;;5029604;28;20028;-68
2023/08/20 08:26:41;;;;;;;9.57;2.35;;;;;;;;;;5029858;28;20626;-68
2023/08/20 08:29:08;;;;;;;9.75;2.25;;;;;;;;;;5008895;28;20052;-68
2023/08/20 08:31:34;;;;;;;15.65;3.42;;;;;;;;;;5008210;28;20060;-68
2023/08/20 08:34:03;;;;;;;9.50;2.20;;;;;;;;;;5009972;28;20032;-68
2023/08/20 08:36:29;;;;;;;14.00;2.88;;;;;;;;;;5010542;28;20056;-68
2023/08/20 08:38:55;;;;;;;12.73;2.35;;;;;;;;;;5010877;28;20077;-68
2023/08/20 08:41:25;;;;;;;10.55;2.28;;;;;;;;;;5009705;28;20037;-68
2023/08/20 08:43:51;;;;;;;11.85;2.70;;;;;;;;;;5011408;28;22246;-68
2023/08/20 08:46:18;;;;;;;9.27;1.90;;;;;;;;;;5009406;28;20037;-68
2023/08/20 08:48:44;;;;;;;12.25;2.85;;;;;;;;;;5009547;28;20033;-68
2023/08/20 08:51:11;;;;;;;8.73;1.92;;;;;;;;;;5008859;28;20032;-68
2023/08/20 08:53:38;;;;;;;9.70;2.20;;;;;;;;;;5010498;28;20029;-68
2023/08/20 08:56:05;;;;;;;14.48;2.67;;;;;;;;;;5011121;28;20843;-68
2023/08/20 08:58:31;;;;;;;9.10;1.85;;;;;;;;;;5010651;28;20148;-68
2023/08/20 09:00:57;;;;;;;9.00;1.85;;;;;;;;;;5010844;28;20121;-68
2023/08/20 09:03:24;;;;;;;10.07;2.28;;;;;;;;;;5011140;28;20391;-68
2023/08/20 09:05:54;;;;;;;9.98;2.47;;;;;;;;;;5010254;28;20408;-68
2023/08/20 09:08:23;;;;;;;10.73;2.08;;;;;;;;;;5010770;28;20043;-68
2023/08/20 09:10:53;;;;;;;8.73;1.40;;;;;;;;;;5026411;28;20032;-68
2023/08/20 09:13:27;;;;;;;7.13;1.45;;;;;;;;;;5008215;28;20048;-68
2023/08/20 09:15:52;;;;;;;;;;;;;;;;;;5010397;28;20041;-68
2023/08/20 09:18:19;;;;;;;11.95;2.15;;;;;;;;;;5010583;28;20040;-68
2023/08/20 09:20:45;;;;;;;8.60;1.80;;;;;;;;;;5010421;28;20029;-68
2023/08/20 09:23:13;;;;;;;7.85;1.90;;;;;;;;;;5010072;28;20026;-68
2023/08/20 09:25:40;;;;;;;8.23;1.70;;;;;;;;;;5010600;28;20111;-68
2023/08/20 09:28:06;;;;;;;12.85;2.50;;;;;;;;;;5009846;28;20972;-68
2023/08/20 09:30:32;;;;;;;11.18;2.55;;;;;;;;;;5010710;28;20664;-68
2023/08/20 09:33:06;;;;;;;6.97;1.65;;;;;;;;;;5011096;28;20044;-68
2023/08/20 09:35:32;;;;;;;;;;;;;;;;;;5013224;28;20164;-68
2023/08/20 09:38:01;;;;;;;11.50;3.33;;;;;;;;;;5013118;28;19916;-69
2023/08/20 09:40:28;;;;;;;8.07;1.75;;;;;;;;;;5013044;28;20463;-68
2023/08/20 09:42:57;;;;;;;12.00;2.38;;;;;;;;;;5010765;28;20036;-68
2023/08/20 09:45:28;;;;;;;7.18;1.80;;;;;;;;;;5012369;28;20048;-69
2023/08/20 09:47:58;;;;;;;10.23;2.30;;;;;;;;;;5012303;28;20028;-68
2023/08/20 09:50:26;;;;;;;10.43;1.83;;;;;;;;;;5013253;28;20033;-69
2023/08/20 09:53:07;;;;;;;8.65;1.85;;;;;;;;;;5013326;28;20033;-69
2023/08/20 09:55:36;;;;;;;11.18;2.13;;;;;;;;;;5013628;28;20033;-69
2023/08/20 09:58:03;;;;;;;8.45;1.83;;;;;;;;;;5012640;28;20710;-69
2023/08/20 10:00:29;;;;;;;10.43;2.08;;;;;;;;;;5012334;28;20025;-69
2023/08/20 10:02:56;;;;;;;10.05;1.75;;;;;;;;;;5012850;28;20037;-68
2023/08/20 10:05:23;;;;;;;10.23;2.20;;;;;;;;;;5012639;28;20123;-69
2023/08/20 10:07:50;;;;;;;5.50;1.40;;;;;;;;;;5013299;28;20076;-69
2023/08/20 10:10:16;;;;;;;8.50;2.00;;;;;;;;;;5012923;28;20128;-69
2023/08/20 10:12:44;;;;;;;6.32;1.45;;;;;;;;;;5012505;28;20037;-69
2023/08/20 10:15:11;;;;;;;7.82;1.52;;;;;;;;;;5013334;28;20037;-69
2023/08/20 10:17:38;;;;;;;7.80;1.75;;;;;;;;;;5013124;28;20476;-68
2023/08/20 10:20:04;;;;;;;10.05;1.90;;;;;;;;;;5013476;28;20043;-69
2023/08/20 10:22:36;;;;;;;9.18;2.20;;;;;;;;;;5012247;28;20126;-69
2023/08/20 10:25:05;;;;;;;8.00;1.77;;;;;;;;;;5012050;28;20039;-69
2023/08/20 10:27:32;;;;;;;8.00;2.08;;;;;;;;;;5012877;28;20159;-68
2023/08/20 10:30:02;;;;;;;6.20;1.10;;;;;;;;;;5011157;28;20126;-69
2023/08/20 10:32:54;;;;;;;6.30;1.40;;;;;;;;;;5010902;28;20240;-69
2023/08/20 10:35:26;;;;;;;9.15;1.83;;;;;;;;;;5008208;28;20056;-68
2023/08/20 10:38:05;;;;;;;7.47;1.83;;;;;;;;;;5011250;28;20037;-69
2023/08/20 10:40:57;;;;;;;7.78;1.65;;;;;;;;;;5011254;28;20083;-69
2023/08/20 10:43:27;;;;;;;7.47;1.73;;;;;;;;;;5009001;28;20041;-69
2023/08/20 10:46:12;;;;;;;10.23;2.10;;;;;;;;;;5011128;28;20037;-68
2023/08/20 10:48:39;;;;;;;9.10;2.03;;;;;;;;;;5012726;28;20060;-69
2023/08/20 10:51:18;;;;;;;12.35;1.95;;;;;;;;;;5012140;28;21026;-69
2023/08/20 10:53:48;;;;;;;6.53;1.30;;;;;;;;;;5011764;28;20108;-69
2023/08/20 10:56:16;;;;;;;5.55;1.33;;;;;;;;;;5011417;28;20828;-69
2023/08/20 10:58:43;;;;;;;9.20;2.25;;;;;;;;;;5015397;28;20127;-70
2023/08/20 11:01:22;;;;;;;4.72;1.30;;;;;;;;;;5026412;28;20029;-68
2023/08/20 11:03:50;;;;;;;8.23;1.40;;;;;;;;;;5010512;28;20108;-68
2023/08/20 11:06:16;;;;;;;6.97;1.40;;;;;;;;;;5012436;28;20021;-69
2023/08/20 11:08:43;;;;;;;6.43;1.50;;;;;;;;;;5012415;28;20029;-69
2023/08/20 11:11:09;;;;;;;5.80;1.13;;;;;;;;;;5011951;28;20036;-69
2023/08/20 11:13:36;;;;;;;5.25;1.42;;;;;;;;;;5009693;28;20556;-69
2023/08/20 11:16:05;;;;;;;6.45;1.85;;;;;;;;;;5009977;28;20041;-69
2023/08/20 11:18:34;;;;;;;8.07;1.95;;;;;;;;;;5011885;28;20095;-69
2023/08/20 11:21:01;;;;;;;7.90;1.75;;;;;;;;;;5012083;28;20017;-69
2023/08/20 11:23:29;;;;;;;5.50;1.70;;;;;;;;;;5011213;28;20043;-69
2023/08/20 11:25:55;;;;;;;7.43;1.83;;;;;;;;;;5010814;28;20589;-69
2023/08/20 11:28:22;;;;;;;10.25;1.67;;;;;;;;;;5023419;28;20183;-69
2023/08/20 11:30:48;;;;;;;8.75;1.73;;;;;;;;;;5012583;28;20045;-69
2023/08/20 11:33:14;;;;;;;6.93;1.40;;;;;;;;;;5014338;28;20111;-69
2023/08/20 11:35:41;;;;;;;8.23;1.75;;;;;;;;;;5010006;28;20086;-69
2023/08/20 11:38:13;;;;;;;7.28;1.45;;;;;;;;;;5011394;28;20116;-69
2023/08/20 11:40:39;;;;;;;7.05;1.02;;;;;;;;;;5009326;28;20035;-69
2023/08/20 11:43:06;;;;;;;6.45;1.40;;;;;;;;;;5010390;28;21983;-69
2023/08/20 11:45:32;;;;;;;7.72;1.58;;;;;;;;;;5009829;28;21118;-69
2023/08/20 11:47:59;;;;;;;8.35;1.52;;;;;;;;;;5010486;28;20029;-69
2023/08/20 11:50:25;;;;;;;4.15;1.05;;;;;;;;;;5010517;28;20377;-69
2023/08/20 11:52:54;;;;;;;12.10;1.98;;;;;;;;;;5011842;28;20077;-69
2023/08/20 11:55:23;;;;;;;7.70;1.83;;;;;;;;;;5010542;28;20024;-69
2023/08/20 11:57:50;;;;;;;8.95;1.50;;;;;;;;;;5011466;28;20046;-69
2023/08/20 12:00:24;;;;;;;6.53;1.38;;;;;;;;;;5010352;28;20032;-69
2023/08/20 12:02:53;;;;;;;8.07;1.67;;;;;;;;;;5011035;28;20040;-69
2023/08/20 12:05:19;;;;;;;9.25;1.50;;;;;;;;;;5025667;28;20160;-69
2023/08/20 12:07:55;;;;;;;6.82;1.75;;;;;;;;;;5011047;28;20040;-69
2023/08/20 12:10:22;;;;;;;6.50;1.65;;;;;;;;;;5011732;28;20158;-69
2023/08/20 12:12:48;;;;;;;6.13;1.45;;;;;;;;;;5011188;28;20037;-69
2023/08/20 12:15:15;;;;;;;7.05;1.60;;;;;;;;;;5011122;28;20423;-69
2023/08/20 12:17:41;;;;;;;6.95;1.17;;;;;;;;;;5009404;28;20661;-68
2023/08/20 12:20:12;;;;;;;8.48;2.17;;;;;;;;;;5010349;28;20029;-68
2023/08/20 12:22:39;;;;;;;10.48;1.60;;;;;;;;;;5011057;28;20036;-69
2023/08/20 12:25:06;;;;;;;5.60;1.30;;;;;;;;;;5010348;28;20078;-69
2023/08/20 12:27:32;;;;;;;8.00;1.55;;;;;;;;;;5010056;28;20044;-69
2023/08/20 12:29:58;;;;;;;6.93;1.40;;;;;;;;;;5010887;28;20044;-68
2023/08/20 12:32:24;;;;;;;6.78;1.38;;;;;;;;;;5009240;28;20065;-68
2023/08/20 12:34:50;;;;;;;8.60;1.75;;;;;;;;;;5009785;28;20110;-69
2023/08/20 12:37:16;;;;;;;8.00;1.88;;;;;;;;;;5010259;28;20029;-69
2023/08/20 12:39:42;;;;;;;8.32;1.98;;;;;;;;;;5009290;28;20036;-69
2023/08/20 12:42:09;;;;;;;6.75;1.75;;;;;;;;;;5009980;28;20049;-69
2023/08/20 12:44:35;;;;;;;8.00;1.98;;;;;;;;;;5010058;28;20033;-69
2023/08/20 12:47:01;;;;;;;7.03;1.25;;;;;;;;;;5008022;28;20034;-69
2023/08/20 12:57:25;;;;;;;4.82;1.40;;;;;;;;;;5403211;22;20064;-66
2023/08/20 12:59:51;;;;;;;8.90;1.38;;;;;;;;;;5169092;22;20060;-61
2023/08/20 13:04:53;;;;;;;7.50;1.70;;;;;;;;;;5136779;22;20041;-62
2023/08/20 13:09:55;;;;;;;5.90;1.10;;;;;;;;;;5418705;22;20048;-62
2023/08/20 13:12:23;;;;;;;4.00;1.02;;;;;;;;;;4993950;28;20017;-61
2023/08/20 13:14:49;;;;;;;4.57;1.05;;;;;;;;;;4993965;28;20034;-62
2023/08/20 13:17:15;;;;;;;5.82;1.67;;;;;;;;;;4989939;28;20041;-62
2023/08/20 13:19:41;;;;;;;6.43;1.00;;;;;;;;;;4988470;28;20018;-62
2023/08/20 13:22:07;;;;;;;4.72;0.95;;;;;;;;;;4988880;28;20066;-61
2023/08/20 13:24:34;;;;;;;6.05;1.73;;;;;;;;;;4990278;28;20068;-62
2023/08/20 13:27:00;;;;;;;6.55;1.20;;;;;;;;;;4989716;28;20034;-62
2023/08/20 13:29:26;;;;;;;5.53;1.30;;;;;;;;;;4988948;28;20037;-61
2023/08/20 13:31:52;;;;;;;5.72;1.45;;;;;;;;;;4989963;28;21953;-61
2023/08/20 13:34:19;;;;;;;5.53;1.20;;;;;;;;;;4989874;28;20046;-62
2023/08/20 13:36:46;;;;;;;8.55;1.80;;;;;;;;;;4989008;28;20025;-62
2023/08/20 13:39:13;;;;;;;5.88;1.23;;;;;;;;;;4989071;28;20069;-62
2023/08/20 13:41:40;;;;;;;6.47;1.38;;;;;;;;;;4988897;28;21505;-62
2023/08/20 13:44:06;;;;;;;4.97;1.45;;;;;;;;;;4987346;28;20034;-62
2023/08/20 13:46:32;;;;;;;5.13;1.05;;;;;;;;;;4989207;28;20568;-62
2023/08/20 13:48:58;;;;;;;7.20;1.30;;;;;;;;;;4989197;28;20428;-62
2023/08/20 13:51:25;;;;;;;7.72;1.38;;;;;;;;;;4989238;28;20037;-62
2023/08/20 13:53:51;;;;;;;4.30;1.13;;;;;;;;;;4989604;28;20829;-61
2023/08/20 13:56:17;;;;;;;7.00;1.30;;;;;;;;;;4993379;28;20078;-62
2023/08/20 13:58:43;;;;;;;5.43;1.25;;;;;;;;;;4987852;28;20030;-62
2023/08/20 14:01:11;;;;;;;7.43;1.30;;;;;;;;;;4993295;28;20038;-62
2023/08/20 14:03:37;;;;;;;10.13;1.30;;;;;;;;;;4973689;28;20036;-62
2023/08/20 14:06:03;;;;;;;4.57;1.10;;;;;;;;;;4978087;28;20050;-61
2023/08/20 14:08:29;;;;;;;7.65;1.30;;;;;;;;;;4981191;28;20077;-62
2023/08/20 14:10:55;;;;;;;5.28;1.23;;;;;;;;;;4991740;28;21010;-62
2023/08/20 14:13:21;;;;;;;3.67;0.93;;;;;;;;;;5000952;28;20068;-61
2023/08/20 14:15:47;;;;;;;6.57;1.60;;;;;;;;;;5000509;28;20041;-62
2023/08/20 14:18:13;;;;;;;7.00;1.45;;;;;;;;;;4999903;28;20048;-62
2023/08/20 14:20:39;;;;;;;4.88;1.10;;;;;;;;;;5000998;28;20157;-62
2023/08/20 14:23:05;;;;;;;4.85;1.00;;;;;;;;;;5000856;28;20117;-62
2023/08/20 14:25:31;;;;;;;7.35;1.45;;;;;;;;;;5000784;28;20041;-62
2023/08/20 14:27:57;;;;;;;5.78;1.35;;;;;;;;;;4999342;28;20035;-62
2023/08/20 14:30:24;;;;;;;4.97;1.10;;;;;;;;;;5000784;28;20072;-62
2023/08/20 14:32:50;;;;;;;5.20;1.40;;;;;;;;;;4999889;28;21787;-62
2023/08/20 14:35:16;;;;;;;5.78;1.08;;;;;;;;;;4995935;28;20814;-62
2023/08/20 14:37:43;;;;;;;3.08;0.90;;;;;;;;;;4995879;28;20060;-62
2023/08/20 14:40:10;;;;;;;5.60;1.25;;;;;;;;;;4994127;28;20571;-62
2023/08/20 14:42:37;;;;;;;5.70;1.45;;;;;;;;;;4995853;28;20041;-62
2023/08/20 14:45:03;;;;;;;4.55;1.00;;;;;;;;;;4998722;28;20080;-62
2023/08/20 14:47:30;;;;;;;6.03;1.00;;;;;;;;;;4997706;28;20029;-61
2023/08/20 14:49:56;;;;;;;7.03;1.48;;;;;;;;;;5001230;28;20025;-62